Time;durP1;ratioP1;P1;durP2;ratioP2;P2;SDS_P1;SDS_P2;PMS_P1;PMS_P2;Temp;Humidity;BMP_temperature;BMP_pressure;BME280_temperature;BME280_humidity;BME280_pressure;Samples;Min_cycle;Max_cycle;Signal;HPM_P1;HPM_P2
2022/01/22 00:00:49;;;;;;;17.98;8.75;;;;;;;;;;4987671;28;20369;-76
2022/01/22 00:03:15;;;;;;;8.82;4.30;;;;;;;;;;4970360;28;20396;-76
2022/01/22 00:05:41;;;;;;;9.80;4.40;;;;;;;;;;4983652;28;20106;-77
2022/01/22 00:08:08;;;;;;;8.93;3.65;;;;;;;;;;4955591;28;20221;-76
2022/01/22 00:10:34;;;;;;;8.05;3.22;;;;;;;;;;4947677;28;20051;-77
2022/01/22 00:15:29;;;;;;;9.95;3.30;;;;;;;;;;4985079;28;20053;-76
2022/01/22 00:17:55;;;;;;;7.03;3.08;;;;;;;;;;4986028;28;20127;-76
2022/01/22 00:20:24;;;;;;;9.23;3.13;;;;;;;;;;4970317;28;20499;-77
2022/01/22 00:22:50;;;;;;;7.93;2.80;;;;;;;;;;4983202;28;20054;-76
2022/01/22 00:25:19;;;;;;;6.40;3.00;;;;;;;;;;4988524;28;20046;-76
2022/01/22 00:27:47;;;;;;;6.15;2.83;;;;;;;;;;4989695;28;20034;-76
2022/01/22 00:30:24;;;;;;;8.48;3.08;;;;;;;;;;4988524;28;20026;-78
2022/01/22 00:32:50;;;;;;;5.43;2.85;;;;;;;;;;4954407;28;20577;-78
2022/01/22 00:35:18;;;;;;;10.95;3.25;;;;;;;;;;4986915;28;20054;-76
2022/01/22 00:37:47;;;;;;;7.43;2.90;;;;;;;;;;4984713;28;20109;-77
2022/01/22 00:40:15;;;;;;;7.30;2.80;;;;;;;;;;4986643;28;20042;-78
2022/01/22 00:42:42;;;;;;;6.68;2.65;;;;;;;;;;4980636;28;20062;-77
2022/01/22 00:45:09;;;;;;;9.45;3.13;;;;;;;;;;4968806;28;20057;-76
2022/01/22 00:47:35;;;;;;;6.60;2.40;;;;;;;;;;4982978;28;20039;-78
2022/01/22 00:50:02;;;;;;;9.20;2.67;;;;;;;;;;4965467;28;20042;-76
2022/01/22 00:52:28;;;;;;;10.70;3.50;;;;;;;;;;4963655;28;20055;-77
2022/01/22 00:54:54;;;;;;;9.07;2.85;;;;;;;;;;4967037;28;20082;-77
2022/01/22 00:57:20;;;;;;;10.13;3.13;;;;;;;;;;4967797;28;20138;-77
2022/01/22 00:59:46;;;;;;;7.85;3.25;;;;;;;;;;4968236;28;20452;-77
2022/01/22 01:02:11;;;;;;;5.75;2.70;;;;;;;;;;4964251;28;20365;-77
2022/01/22 01:04:38;;;;;;;9.32;2.83;;;;;;;;;;4962947;28;20074;-77
2022/01/22 01:07:04;;;;;;;8.68;2.92;;;;;;;;;;4966255;28;20377;-77
2022/01/22 01:09:31;;;;;;;7.75;3.28;;;;;;;;;;4954975;28;20445;-76
2022/01/22 01:12:02;;;;;;;9.20;2.63;;;;;;;;;;4969072;28;20058;-77
2022/01/22 01:14:38;;;;;;;9.60;3.15;;;;;;;;;;4983481;28;20065;-78
2022/01/22 01:33:34;;;;;;;9.25;2.83;;;;;;;;;;4943405;28;20040;-77
2022/01/22 01:36:00;;;;;;;6.28;2.90;;;;;;;;;;4941950;28;20035;-77
2022/01/22 01:38:26;;;;;;;6.45;2.88;;;;;;;;;;4939265;29;20063;-77
2022/01/22 01:41:03;;;;;;;8.20;2.90;;;;;;;;;;4947575;29;21368;-77
2022/01/22 01:43:34;;;;;;;6.10;2.70;;;;;;;;;;4943643;28;20035;-78
2022/01/22 01:46:01;;;;;;;7.35;2.97;;;;;;;;;;4948215;28;20040;-77
2022/01/22 01:48:31;;;;;;;8.93;3.03;;;;;;;;;;4967623;28;20136;-75
2022/01/22 01:50:58;;;;;;;9.98;3.22;;;;;;;;;;4967877;28;20039;-77
2022/01/22 01:53:46;;;;;;;7.25;2.70;;;;;;;;;;4967306;28;20043;-77
2022/01/22 01:58:56;;;;;;;10.77;3.78;;;;;;;;;;4968476;28;20038;-77
2022/01/22 02:01:22;;;;;;;9.90;3.35;;;;;;;;;;4986700;28;20149;-77
2022/01/22 02:03:49;;;;;;;10.00;3.33;;;;;;;;;;4987682;28;20089;-78
2022/01/22 02:06:15;;;;;;;8.82;3.40;;;;;;;;;;4980372;28;20046;-77
2022/01/22 02:08:41;;;;;;;7.90;3.20;;;;;;;;;;4987554;28;20057;-76
2022/01/22 02:11:08;;;;;;;8.15;3.05;;;;;;;;;;4986094;28;20137;-76
2022/01/22 02:25:29;;;;;;;9.05;3.28;;;;;;;;;;4856816;29;20414;-89
2022/01/22 02:34:50;;;;;;;9.63;3.97;;;;;;;;;;4072730;35;20064;-90
2022/01/22 02:37:18;;;;;;;9.57;3.88;;;;;;;;;;4069947;35;20080;-89
2022/01/22 02:40:00;;;;;;;11.90;3.80;;;;;;;;;;4068516;35;20052;-88
2022/01/22 02:47:38;;;;;;;13.00;4.45;;;;;;;;;;4233427;29;20070;-88
2022/01/22 02:50:05;;;;;;;8.13;3.70;;;;;;;;;;4164829;29;20078;-88
2022/01/22 02:52:32;;;;;;;11.00;4.20;;;;;;;;;;4141144;34;20078;-89
2022/01/22 02:54:58;;;;;;;10.10;3.65;;;;;;;;;;4141323;34;20406;-89
2022/01/22 02:57:24;;;;;;;6.60;3.78;;;;;;;;;;4138476;34;20152;-88
2022/01/22 02:59:50;;;;;;;8.27;4.15;;;;;;;;;;4134201;34;20074;-88
2022/01/22 03:02:16;;;;;;;9.10;3.88;;;;;;;;;;4133529;34;20652;-89
2022/01/22 03:04:42;;;;;;;11.43;3.63;;;;;;;;;;4133627;34;20070;-89
2022/01/22 03:07:09;;;;;;;10.15;4.10;;;;;;;;;;4133039;34;20560;-90
2022/01/22 03:09:41;;;;;;;7.70;3.83;;;;;;;;;;4143490;34;20126;-88
2022/01/22 03:28:14;;;;;;;8.52;3.58;;;;;;;;;;4297834;30;20061;-87
2022/01/22 03:30:39;;;;;;;7.18;3.50;;;;;;;;;;4761399;29;20046;-88
2022/01/22 03:33:05;;;;;;;9.40;3.88;;;;;;;;;;4794522;29;20090;-86
2022/01/22 03:35:35;;;;;;;9.90;4.07;;;;;;;;;;4837992;29;20053;-88
2022/01/22 03:38:02;;;;;;;8.95;3.40;;;;;;;;;;4886058;29;20044;-88
2022/01/22 03:40:29;;;;;;;13.10;3.83;;;;;;;;;;4915551;29;20052;-88
2022/01/22 03:42:55;;;;;;;8.20;3.45;;;;;;;;;;4895091;29;20514;-89
2022/01/22 03:45:23;;;;;;;10.73;3.80;;;;;;;;;;4893633;29;20044;-88
2022/01/22 03:47:49;;;;;;;8.07;3.60;;;;;;;;;;4903622;29;20059;-89
2022/01/22 03:50:18;;;;;;;8.80;3.60;;;;;;;;;;4886446;29;20048;-89
2022/01/22 03:52:43;;;;;;;14.25;3.88;;;;;;;;;;4895796;28;20487;-88
2022/01/22 03:55:19;;;;;;;6.60;3.47;;;;;;;;;;4960615;28;20089;-88
2022/01/22 03:57:45;;;;;;;5.90;2.95;;;;;;;;;;4940912;28;20066;-88
2022/01/22 04:00:11;;;;;;;9.30;3.60;;;;;;;;;;4959644;28;20149;-89
2022/01/22 04:05:14;;;;;;;8.43;3.80;;;;;;;;;;4963402;28;20585;-85
2022/01/22 04:08:07;;;;;;;9.02;3.38;;;;;;;;;;4965808;28;20049;-88
2022/01/22 04:10:32;;;;;;;;;;;;;;;;;;4963841;28;20038;-88
2022/01/22 04:13:02;;;;;;;8.50;3.33;;;;;;;;;;4965703;28;20772;-86
2022/01/22 04:15:34;;;;;;;6.57;3.10;;;;;;;;;;4962767;28;20408;-90
2022/01/22 04:26:36;;;;;;;11.60;3.40;;;;;;;;;;4926834;29;20044;-89
2022/01/22 04:28:59;;;;;;;7.03;3.20;;;;;;;;;;4917485;28;20040;-88
2022/01/22 04:31:25;;;;;;;7.10;3.10;;;;;;;;;;4959442;28;20059;-87
2022/01/22 04:33:51;;;;;;;11.07;3.88;;;;;;;;;;4959194;28;20046;-89
2022/01/22 04:36:17;;;;;;;12.38;3.42;;;;;;;;;;4950940;28;20054;-89
2022/01/22 04:38:43;;;;;;;8.25;3.83;;;;;;;;;;4916687;28;20086;-88
2022/01/22 04:41:09;;;;;;;9.63;3.42;;;;;;;;;;4906999;29;20054;-88
2022/01/22 04:43:38;;;;;;;6.70;3.22;;;;;;;;;;4913698;28;20197;-88
2022/01/22 04:46:24;;;;;;;8.18;3.75;;;;;;;;;;4945764;28;20398;-87
2022/01/22 04:49:07;;;;;;;8.05;3.30;;;;;;;;;;4945012;28;20043;-88
2022/01/22 04:57:07;;;;;;;5.80;3.15;;;;;;;;;;4961676;28;20034;-90
2022/01/22 04:59:33;;;;;;;6.75;3.33;;;;;;;;;;4944520;28;20043;-88
2022/01/22 05:01:59;;;;;;;8.50;3.58;;;;;;;;;;4960852;28;20057;-88
2022/01/22 05:04:25;;;;;;;7.55;3.40;;;;;;;;;;4946097;28;20051;-89
2022/01/22 05:06:51;;;;;;;7.55;3.28;;;;;;;;;;4951098;28;20050;-87
2022/01/22 05:09:17;;;;;;;6.35;3.22;;;;;;;;;;4925858;29;20098;-88
2022/01/22 05:11:42;;;;;;;5.60;2.80;;;;;;;;;;4945071;28;20593;-87
2022/01/22 05:14:08;;;;;;;6.85;3.13;;;;;;;;;;4942274;29;20055;-84
2022/01/22 05:16:34;;;;;;;9.32;3.30;;;;;;;;;;4914384;28;20047;-89
2022/01/22 05:19:07;;;;;;;8.32;3.22;;;;;;;;;;4956086;28;20054;-87
2022/01/22 05:21:35;;;;;;;7.97;3.30;;;;;;;;;;4968194;28;20038;-88
2022/01/22 05:24:05;;;;;;;12.15;4.13;;;;;;;;;;4984152;28;20353;-89
2022/01/22 05:37:05;;;;;;;5.88;3.40;;;;;;;;;;4946478;28;20393;-88
2022/01/22 05:39:32;;;;;;;8.00;3.15;;;;;;;;;;4968122;28;20575;-88
2022/01/22 05:42:01;;;;;;;6.55;3.70;;;;;;;;;;4946419;28;20041;-89
2022/01/22 05:44:30;;;;;;;6.97;3.45;;;;;;;;;;4961011;28;20042;-87
2022/01/22 05:47:01;;;;;;;8.77;3.40;;;;;;;;;;4959359;28;20038;-88
2022/01/22 05:49:29;;;;;;;10.02;4.90;;;;;;;;;;4959523;28;20488;-87
2022/01/22 05:51:57;;;;;;;8.90;3.90;;;;;;;;;;4959017;28;20392;-87
2022/01/22 05:59:50;;;;;;;6.43;3.17;;;;;;;;;;4888619;29;20049;-88
2022/01/22 06:02:18;;;;;;;7.68;3.63;;;;;;;;;;4943271;28;20073;-87
2022/01/22 06:04:45;;;;;;;7.65;3.53;;;;;;;;;;4941916;28;20043;-88
2022/01/22 06:07:12;;;;;;;5.35;3.40;;;;;;;;;;4938782;28;20031;-87
2022/01/22 06:09:51;;;;;;;9.07;3.92;;;;;;;;;;4938243;28;20056;-87
2022/01/22 06:12:29;;;;;;;6.00;3.72;;;;;;;;;;4948441;28;20499;-87
2022/01/22 06:14:55;;;;;;;7.20;3.80;;;;;;;;;;4946967;28;20048;-87
2022/01/22 06:17:21;;;;;;;6.10;3.80;;;;;;;;;;4931615;28;20126;-89
2022/01/22 06:19:47;;;;;;;7.97;3.97;;;;;;;;;;4939819;28;20505;-87
2022/01/22 06:22:13;;;;;;;10.65;4.07;;;;;;;;;;4937390;28;20142;-86
2022/01/22 06:24:38;;;;;;;7.88;3.90;;;;;;;;;;4940614;28;20119;-87
2022/01/22 06:27:04;;;;;;;7.82;3.97;;;;;;;;;;4926611;29;20143;-89
2022/01/22 06:29:30;;;;;;;8.10;4.35;;;;;;;;;;4938168;28;20048;-86
2022/01/22 06:31:56;;;;;;;6.95;4.07;;;;;;;;;;4923053;28;20466;-88
2022/01/22 06:34:22;;;;;;;7.57;4.25;;;;;;;;;;4929009;28;20135;-87
2022/01/22 06:36:48;;;;;;;7.22;4.18;;;;;;;;;;4932186;28;20134;-87
2022/01/22 06:39:16;;;;;;;7.72;4.40;;;;;;;;;;4909517;29;20060;-88
2022/01/22 06:41:46;;;;;;;9.85;4.90;;;;;;;;;;4928759;29;20436;-87
2022/01/22 06:44:23;;;;;;;9.02;5.05;;;;;;;;;;4939225;28;20093;-86
2022/01/22 06:46:53;;;;;;;8.77;4.40;;;;;;;;;;4957766;28;20727;-87
2022/01/22 06:49:19;;;;;;;11.60;4.90;;;;;;;;;;4966529;28;20682;-81
2022/01/22 06:51:45;;;;;;;11.18;4.80;;;;;;;;;;4962133;28;20054;-81
2022/01/22 06:54:13;;;;;;;10.07;4.47;;;;;;;;;;4967783;28;20078;-82
2022/01/22 06:56:39;;;;;;;7.38;4.55;;;;;;;;;;4965079;28;20054;-82
2022/01/22 06:59:08;;;;;;;8.07;4.38;;;;;;;;;;4967984;28;20054;-81
2022/01/22 07:01:35;;;;;;;7.45;4.25;;;;;;;;;;4969587;28;20050;-81
2022/01/22 07:04:01;;;;;;;7.85;4.15;;;;;;;;;;4991185;28;20864;-82
2022/01/22 07:06:27;;;;;;;8.77;4.63;;;;;;;;;;4997352;28;20030;-81
2022/01/22 07:08:53;;;;;;;8.07;4.40;;;;;;;;;;4976720;28;20027;-81
2022/01/22 07:11:19;;;;;;;8.70;4.25;;;;;;;;;;4991785;28;20046;-81
2022/01/22 07:13:45;;;;;;;6.88;4.18;;;;;;;;;;4993928;28;20031;-88
2022/01/22 07:16:11;;;;;;;8.68;4.13;;;;;;;;;;4989628;28;20041;-86
2022/01/22 07:18:38;;;;;;;6.95;4.18;;;;;;;;;;4989418;28;20031;-88
2022/01/22 07:21:14;;;;;;;8.82;4.38;;;;;;;;;;4988860;28;20187;-87
2022/01/22 07:24:22;;;;;;;7.00;4.60;;;;;;;;;;4988988;28;20065;-85
2022/01/22 07:26:30;;;;;;;9.93;4.88;;;;;;;;;;4989619;28;20042;-87
2022/01/22 07:28:56;;;;;;;9.88;4.50;;;;;;;;;;4990042;28;20111;-86
2022/01/22 07:31:27;;;;;;;7.03;4.90;;;;;;;;;;4989779;28;20023;-85
2022/01/22 07:33:53;;;;;;;7.60;4.93;;;;;;;;;;4987115;28;20049;-88
2022/01/22 07:36:18;;;;;;;10.27;5.90;;;;;;;;;;4991682;28;20795;-85
2022/01/22 07:38:45;;;;;;;7.15;4.20;;;;;;;;;;5006515;28;20034;-88
2022/01/22 07:41:12;;;;;;;6.55;4.10;;;;;;;;;;4995288;28;20045;-87
2022/01/22 07:43:39;;;;;;;8.90;4.53;;;;;;;;;;5010364;28;20225;-85
2022/01/22 07:46:06;;;;;;;10.38;6.10;;;;;;;;;;5011943;28;20041;-88
2022/01/22 07:48:32;;;;;;;10.88;4.60;;;;;;;;;;5012195;28;20117;-86
2022/01/22 07:50:58;;;;;;;6.28;3.97;;;;;;;;;;5010875;28;20049;-83
2022/01/22 07:53:25;;;;;;;7.57;3.80;;;;;;;;;;5003269;28;20034;-84
2022/01/22 07:55:52;;;;;;;6.10;3.78;;;;;;;;;;4995239;28;20049;-88
2022/01/22 07:58:17;;;;;;;6.10;3.65;;;;;;;;;;4988678;28;20273;-88
2022/01/22 08:00:43;;;;;;;9.10;4.00;;;;;;;;;;4991064;28;20470;-86
2022/01/22 08:03:09;;;;;;;9.50;3.90;;;;;;;;;;4985028;28;20049;-84
2022/01/22 08:05:36;;;;;;;5.45;3.45;;;;;;;;;;4970491;28;20132;-85
2022/01/22 08:08:03;;;;;;;21.13;10.43;;;;;;;;;;4970540;28;20496;-87
2022/01/22 08:10:30;;;;;;;6.53;3.80;;;;;;;;;;4986480;28;20046;-84
2022/01/22 08:12:56;;;;;;;5.63;3.25;;;;;;;;;;4978560;28;20052;-83
2022/01/22 08:15:22;;;;;;;6.78;3.47;;;;;;;;;;4987569;28;20464;-84
2022/01/22 08:17:48;;;;;;;6.95;3.80;;;;;;;;;;4974333;28;20701;-83
2022/01/22 08:20:16;;;;;;;6.10;3.53;;;;;;;;;;4968531;28;20464;-84
2022/01/22 08:22:43;;;;;;;11.52;3.83;;;;;;;;;;4972975;28;20050;-83
2022/01/22 08:25:10;;;;;;;6.45;4.00;;;;;;;;;;4983802;28;20046;-84
2022/01/22 08:28:53;;;;;;;5.80;3.63;;;;;;;;;;4983109;28;20023;-84
2022/01/22 08:30:33;;;;;;;6.68;3.75;;;;;;;;;;4971852;28;20034;-85
2022/01/22 08:35:53;;;;;;;6.72;3.50;;;;;;;;;;4957486;28;19918;-86
2022/01/22 08:38:30;;;;;;;14.07;7.75;;;;;;;;;;4953719;28;20568;-84
2022/01/22 08:40:57;;;;;;;7.32;3.80;;;;;;;;;;4957608;28;20046;-84
2022/01/22 08:43:23;;;;;;;9.50;4.13;;;;;;;;;;4961454;28;20038;-83
2022/01/22 08:45:50;;;;;;;6.47;3.47;;;;;;;;;;4957381;28;20615;-83
2022/01/22 08:48:17;;;;;;;7.82;3.88;;;;;;;;;;4955930;28;20041;-82
2022/01/22 08:50:43;;;;;;;10.40;4.38;;;;;;;;;;4954982;28;20501;-84
2022/01/22 08:53:09;;;;;;;6.18;3.70;;;;;;;;;;4929106;28;20059;-83
2022/01/22 08:55:35;;;;;;;6.20;4.15;;;;;;;;;;4941973;28;20418;-88
2022/01/22 08:58:02;;;;;;;7.85;4.45;;;;;;;;;;4937868;28;20031;-89
2022/01/22 09:00:28;;;;;;;7.25;4.35;;;;;;;;;;4952689;28;20058;-86
2022/01/22 09:02:54;;;;;;;6.03;3.70;;;;;;;;;;4937143;29;20063;-88
2022/01/22 09:05:23;;;;;;;7.00;4.40;;;;;;;;;;4948662;28;20657;-88
2022/01/22 09:07:49;;;;;;;6.65;4.50;;;;;;;;;;4937202;29;20046;-87
2022/01/22 09:10:15;;;;;;;7.00;4.18;;;;;;;;;;4948085;28;20074;-83
2022/01/22 09:12:41;;;;;;;6.15;4.25;;;;;;;;;;4941506;28;20043;-86
2022/01/22 09:15:07;;;;;;;6.97;3.83;;;;;;;;;;4947655;28;20065;-83
2022/01/22 09:17:33;;;;;;;6.10;3.95;;;;;;;;;;4961120;28;20039;-87
2022/01/22 09:20:01;;;;;;;7.65;4.57;;;;;;;;;;4964731;28;20043;-85
2022/01/22 09:22:27;;;;;;;6.90;4.60;;;;;;;;;;4920235;29;20521;-81
2022/01/22 09:24:53;;;;;;;7.72;4.85;;;;;;;;;;4947712;28;20078;-81
2022/01/22 09:27:19;;;;;;;6.80;4.93;;;;;;;;;;4949201;28;20594;-81
2022/01/22 09:29:45;;;;;;;7.38;4.80;;;;;;;;;;4964139;28;20046;-81
2022/01/22 09:32:12;;;;;;;7.53;4.32;;;;;;;;;;4968432;28;20516;-81
2022/01/22 09:34:38;;;;;;;6.85;4.85;;;;;;;;;;4962364;28;20069;-81
2022/01/22 09:37:04;;;;;;;8.13;4.60;;;;;;;;;;4965579;28;20070;-86
2022/01/22 09:39:29;;;;;;;13.70;7.25;;;;;;;;;;4961213;28;20074;-85
2022/01/22 09:41:55;;;;;;;6.25;4.47;;;;;;;;;;4963516;28;20050;-84
2022/01/22 09:44:21;;;;;;;7.50;5.15;;;;;;;;;;4967034;28;20046;-82
2022/01/22 09:46:47;;;;;;;6.88;4.53;;;;;;;;;;4962536;28;20062;-82
2022/01/22 09:49:13;;;;;;;7.72;4.40;;;;;;;;;;4953226;28;20578;-89
2022/01/22 09:51:40;;;;;;;7.05;4.43;;;;;;;;;;4964433;28;20089;-83
2022/01/22 09:54:07;;;;;;;6.13;4.22;;;;;;;;;;4966242;28;20045;-83
2022/01/22 09:56:33;;;;;;;7.18;4.45;;;;;;;;;;4959546;28;20024;-83
2022/01/22 09:58:59;;;;;;;9.23;4.90;;;;;;;;;;4952816;28;20050;-85
2022/01/22 10:01:27;;;;;;;7.25;4.50;;;;;;;;;;4962906;28;20151;-84
2022/01/22 10:03:56;;;;;;;8.68;5.25;;;;;;;;;;4965874;28;20377;-84
2022/01/22 10:06:28;;;;;;;6.57;4.38;;;;;;;;;;4971622;28;20054;-88
2022/01/22 10:09:13;;;;;;;10.00;5.25;;;;;;;;;;4978644;28;20058;-87
2022/01/22 10:11:40;;;;;;;7.80;5.20;;;;;;;;;;4948284;28;20470;-88
2022/01/22 10:14:06;;;;;;;8.57;4.85;;;;;;;;;;4944945;29;21927;-83
2022/01/22 10:16:35;;;;;;;8.65;5.78;;;;;;;;;;4958155;28;20120;-85
2022/01/22 10:19:12;;;;;;;17.75;11.23;;;;;;;;;;4975141;28;20050;-84
2022/01/22 10:21:45;;;;;;;15.25;8.48;;;;;;;;;;4980742;28;20049;-90
2022/01/22 10:24:58;;;;;;;9.68;6.25;;;;;;;;;;4968024;28;20328;-85
2022/01/22 10:27:46;;;;;;;9.18;5.50;;;;;;;;;;4973198;28;20043;-86
2022/01/22 10:30:16;;;;;;;9.55;6.05;;;;;;;;;;4978896;28;20038;-84
2022/01/22 10:32:58;;;;;;;8.98;5.93;;;;;;;;;;4972304;28;20034;-86
2022/01/22 10:35:29;;;;;;;9.68;5.85;;;;;;;;;;4981433;28;20046;-89
2022/01/22 10:37:57;;;;;;;10.05;6.10;;;;;;;;;;4970369;28;20057;-87
2022/01/22 10:40:26;;;;;;;9.95;5.70;;;;;;;;;;4974810;28;20053;-87
2022/01/22 10:43:08;;;;;;;9.57;6.40;;;;;;;;;;4965970;28;21356;-87
2022/01/22 10:45:39;;;;;;;9.07;5.18;;;;;;;;;;4980415;28;20294;-84
2022/01/22 10:48:21;;;;;;;8.38;5.60;;;;;;;;;;4988172;28;20042;-82
2022/01/22 10:51:07;;;;;;;9.00;5.13;;;;;;;;;;4968754;28;20072;-83
2022/01/22 10:53:35;;;;;;;8.32;5.28;;;;;;;;;;4965519;28;20042;-83
2022/01/22 10:56:03;;;;;;;8.32;5.20;;;;;;;;;;4965110;28;20124;-85
2022/01/22 10:58:30;;;;;;;9.10;5.60;;;;;;;;;;4960577;28;20645;-85
2022/01/22 11:01:03;;;;;;;10.82;6.15;;;;;;;;;;4943841;28;20058;-91
2022/01/22 11:03:29;;;;;;;10.60;5.55;;;;;;;;;;4933940;28;20043;-83
2022/01/22 11:05:57;;;;;;;9.45;5.32;;;;;;;;;;4970681;28;20128;-86
2022/01/22 11:08:24;;;;;;;8.90;4.80;;;;;;;;;;4968721;28;20238;-85
2022/01/22 11:10:50;;;;;;;7.85;4.75;;;;;;;;;;4968239;28;20744;-87
2022/01/22 11:13:16;;;;;;;8.40;5.13;;;;;;;;;;4969648;28;20050;-86
2022/01/22 11:15:44;;;;;;;8.30;5.00;;;;;;;;;;4969385;28;20150;-85
2022/01/22 11:18:13;;;;;;;6.97;4.78;;;;;;;;;;4969703;28;20047;-89
2022/01/22 11:20:39;;;;;;;7.47;4.30;;;;;;;;;;4953339;28;20070;-87
2022/01/22 11:23:06;;;;;;;7.78;4.40;;;;;;;;;;4968773;28;20130;-84
2022/01/22 11:25:34;;;;;;;8.48;4.38;;;;;;;;;;4968189;28;20413;-87
2022/01/22 11:28:01;;;;;;;6.93;3.80;;;;;;;;;;4966880;28;20496;-85
2022/01/22 11:30:28;;;;;;;6.30;4.13;;;;;;;;;;4966199;28;20054;-86
2022/01/22 11:32:59;;;;;;;7.10;3.60;;;;;;;;;;4967851;28;20047;-86
2022/01/22 11:35:52;;;;;;;7.38;3.83;;;;;;;;;;4963462;28;20120;-85
2022/01/22 11:38:30;;;;;;;7.22;3.40;;;;;;;;;;4961985;28;20039;-86
2022/01/22 11:41:08;;;;;;;5.80;3.20;;;;;;;;;;4968281;28;20407;-85
2022/01/22 11:44:16;;;;;;;5.53;3.30;;;;;;;;;;4985424;28;20031;-86
2022/01/22 11:46:51;;;;;;;6.10;3.08;;;;;;;;;;4987421;28;20030;-86
2022/01/22 11:49:26;;;;;;;6.68;3.22;;;;;;;;;;4985983;28;20030;-85
2022/01/22 11:52:12;;;;;;;6.78;3.20;;;;;;;;;;4985446;28;20061;-86
2022/01/22 11:54:59;;;;;;;5.93;3.47;;;;;;;;;;4954436;28;20042;-85
2022/01/22 11:57:28;;;;;;;7.82;3.80;;;;;;;;;;4985289;28;20077;-86
2022/01/22 12:00:19;;;;;;;7.45;3.80;;;;;;;;;;4985926;28;20084;-86
2022/01/22 12:03:05;;;;;;;6.43;3.40;;;;;;;;;;4985875;28;20416;-83
2022/01/22 12:05:31;;;;;;;8.10;3.65;;;;;;;;;;4985854;28;20038;-85
2022/01/22 12:07:58;;;;;;;5.85;3.30;;;;;;;;;;4961115;28;20027;-85
2022/01/22 12:10:38;;;;;;;6.75;3.25;;;;;;;;;;4984501;28;20053;-81
2022/01/22 12:16:37;;;;;;;7.57;3.38;;;;;;;;;;4987493;28;20882;-83
2022/01/22 12:19:04;;;;;;;5.60;3.17;;;;;;;;;;4992878;28;20057;-83
2022/01/22 12:21:36;;;;;;;5.38;3.08;;;;;;;;;;4993822;28;20401;-85
2022/01/22 12:24:08;;;;;;;7.65;3.33;;;;;;;;;;4986445;28;20054;-84
2022/01/22 12:26:41;;;;;;;6.68;3.30;;;;;;;;;;4986063;28;20052;-84
2022/01/22 12:29:34;;;;;;;4.95;2.90;;;;;;;;;;4986716;28;20050;-86
2022/01/22 12:32:06;;;;;;;6.97;3.10;;;;;;;;;;4980035;28;20061;-84
2022/01/22 12:34:55;;;;;;;7.82;3.03;;;;;;;;;;4969015;28;20605;-81
2022/01/22 12:37:22;;;;;;;5.65;2.72;;;;;;;;;;4968536;28;20413;-88
2022/01/22 12:39:54;;;;;;;5.20;2.95;;;;;;;;;;4964759;28;20047;-81
2022/01/22 12:42:32;;;;;;;4.97;3.13;;;;;;;;;;4968524;28;20057;-84
2022/01/22 12:45:06;;;;;;;7.00;3.10;;;;;;;;;;4980063;28;20053;-83
2022/01/22 12:47:33;;;;;;;5.18;2.90;;;;;;;;;;4956903;28;20047;-81
2022/01/22 12:50:07;;;;;;;4.53;2.70;;;;;;;;;;4969898;28;20038;-84
2022/01/22 12:52:34;;;;;;;5.75;2.75;;;;;;;;;;4963829;28;20273;-83
2022/01/22 12:55:15;;;;;;;5.65;2.78;;;;;;;;;;4985630;28;20049;-82
2022/01/22 12:57:42;;;;;;;6.10;2.73;;;;;;;;;;4974789;28;20042;-81
2022/01/22 13:00:16;;;;;;;4.70;2.65;;;;;;;;;;4965207;28;20047;-82
2022/01/22 13:02:44;;;;;;;6.95;3.00;;;;;;;;;;4965715;28;20043;-81
2022/01/22 13:05:15;;;;;;;4.53;2.80;;;;;;;;;;4968970;28;20034;-81
2022/01/22 13:07:54;;;;;;;6.35;2.80;;;;;;;;;;4976503;28;20053;-78
2022/01/22 13:10:26;;;;;;;6.47;3.00;;;;;;;;;;4982493;28;20046;-79
2022/01/22 13:12:53;;;;;;;7.25;2.88;;;;;;;;;;4972629;28;20070;-90
2022/01/22 13:15:19;;;;;;;4.82;2.63;;;;;;;;;;4973107;28;20051;-80
2022/01/22 13:17:51;;;;;;;4.38;2.50;;;;;;;;;;4967702;28;20150;-89
2022/01/22 13:20:23;;;;;;;4.00;2.47;;;;;;;;;;4965968;28;20054;-84
2022/01/22 13:22:49;;;;;;;4.93;2.83;;;;;;;;;;4970185;28;20073;-78
2022/01/22 13:25:16;;;;;;;5.45;2.65;;;;;;;;;;4974295;28;20053;-78
2022/01/22 13:27:57;;;;;;;5.55;2.63;;;;;;;;;;4963936;28;20047;-78
2022/01/22 13:30:33;;;;;;;4.63;2.50;;;;;;;;;;4947866;28;20093;-79
2022/01/22 13:33:13;;;;;;;7.82;2.88;;;;;;;;;;4944675;28;20035;-80
2022/01/22 13:36:05;;;;;;;3.92;2.40;;;;;;;;;;4946229;28;20065;-77
2022/01/22 13:49:31;;;;;;;6.57;3.17;;;;;;;;;;4948758;28;20748;-78
2022/01/22 13:52:06;;;;;;;7.22;2.85;;;;;;;;;;4951790;28;20540;-79
2022/01/22 13:54:37;;;;;;;5.43;2.92;;;;;;;;;;4920950;29;20031;-79
2022/01/22 13:57:08;;;;;;;6.70;3.25;;;;;;;;;;4938096;29;20043;-79
2022/01/22 13:59:37;;;;;;;6.68;3.10;;;;;;;;;;4949088;28;20164;-80
2022/01/22 14:05:01;;;;;;;6.53;2.97;;;;;;;;;;4941734;29;20050;-81
2022/01/22 14:07:49;;;;;;;5.60;3.08;;;;;;;;;;4937330;28;20051;-81
2022/01/22 14:10:24;;;;;;;7.65;2.95;;;;;;;;;;4904008;29;20047;-81
2022/01/22 14:12:59;;;;;;;6.25;3.08;;;;;;;;;;4952140;28;20050;-81
2022/01/22 14:15:25;;;;;;;4.43;2.45;;;;;;;;;;4967448;28;20070;-83
2022/01/22 14:18:15;;;;;;;4.78;2.53;;;;;;;;;;4965400;28;20505;-80
2022/01/22 14:20:45;;;;;;;4.53;2.50;;;;;;;;;;4951564;28;20516;-80
2022/01/22 14:23:20;;;;;;;5.07;2.45;;;;;;;;;;4942105;28;20039;-80
2022/01/22 14:25:58;;;;;;;7.30;2.70;;;;;;;;;;4913002;29;20048;-82
2022/01/22 14:44:45;;;;;;;5.20;2.60;;;;;;;;;;4705227;30;20058;-76
2022/01/22 14:47:20;;;;;;;4.65;2.60;;;;;;;;;;4735702;30;20043;-76
2022/01/22 14:50:03;;;;;;;5.00;2.50;;;;;;;;;;4731424;30;20048;-75
2022/01/22 14:52:29;;;;;;;3.80;2.08;;;;;;;;;;4750166;29;20058;-76
2022/01/22 14:54:57;;;;;;;5.05;2.47;;;;;;;;;;4781559;29;20070;-77
2022/01/22 14:57:27;;;;;;;5.20;2.65;;;;;;;;;;4783511;29;20054;-76
2022/01/22 14:59:52;;;;;;;4.53;2.20;;;;;;;;;;4788832;29;20039;-76
2022/01/22 15:02:18;;;;;;;4.68;2.67;;;;;;;;;;4818121;29;20068;-76
2022/01/22 15:04:44;;;;;;;5.18;2.20;;;;;;;;;;4823032;29;20062;-76
2022/01/22 15:07:16;;;;;;;3.95;2.47;;;;;;;;;;4856285;29;20056;-76
2022/01/22 15:09:44;;;;;;;4.30;2.13;;;;;;;;;;4859352;29;20049;-76
2022/01/22 15:12:11;;;;;;;4.40;2.55;;;;;;;;;;4891473;29;20499;-76
2022/01/22 15:14:39;;;;;;;5.38;2.42;;;;;;;;;;4895350;29;20221;-74
2022/01/22 15:19:36;;;;;;;4.93;2.37;;;;;;;;;;4876596;29;20071;-75
2022/01/22 15:22:03;;;;;;;4.97;2.45;;;;;;;;;;4878688;29;21034;-74
2022/01/22 15:24:29;;;;;;;5.13;2.50;;;;;;;;;;4859496;29;20049;-74
2022/01/22 15:26:55;;;;;;;4.05;2.42;;;;;;;;;;4842339;29;20536;-74
2022/01/22 15:29:27;;;;;;;4.68;2.50;;;;;;;;;;4856074;29;20040;-75
2022/01/22 15:37:03;;;;;;;5.65;3.08;;;;;;;;;;4858413;29;20079;-75
2022/01/22 15:39:30;;;;;;;5.10;2.78;;;;;;;;;;4858860;29;20061;-75
2022/01/22 15:41:59;;;;;;;6.32;2.72;;;;;;;;;;4875198;29;20060;-75
2022/01/22 15:44:25;;;;;;;5.20;2.85;;;;;;;;;;4880396;29;20055;-75
2022/01/22 15:46:51;;;;;;;5.80;2.88;;;;;;;;;;4879459;29;20406;-75
2022/01/22 15:49:20;;;;;;;5.38;2.97;;;;;;;;;;4866867;29;20040;-75
2022/01/22 15:51:52;;;;;;;8.27;3.55;;;;;;;;;;4893373;29;20048;-75
2022/01/22 15:54:18;;;;;;;7.45;3.53;;;;;;;;;;4878468;29;20507;-74
2022/01/22 15:56:45;;;;;;;6.07;3.30;;;;;;;;;;4872954;29;20512;-75
2022/01/22 15:59:14;;;;;;;6.15;3.45;;;;;;;;;;4863064;29;20053;-75
2022/01/22 16:01:42;;;;;;;7.28;3.70;;;;;;;;;;4861334;29;20049;-75
2022/01/22 16:04:08;;;;;;;7.45;3.83;;;;;;;;;;4863594;29;20491;-76
2022/01/22 16:06:39;;;;;;;6.40;3.60;;;;;;;;;;4879889;29;20049;-75
2022/01/22 16:09:13;;;;;;;7.47;4.00;;;;;;;;;;4847971;29;20041;-74
2022/01/22 16:11:39;;;;;;;7.70;4.15;;;;;;;;;;4865383;29;20045;-75
2022/01/22 16:14:07;;;;;;;8.20;4.03;;;;;;;;;;4885540;29;20045;-75
2022/01/22 16:16:34;;;;;;;6.32;3.92;;;;;;;;;;4892075;29;20036;-75
2022/01/22 16:19:01;;;;;;;7.32;3.80;;;;;;;;;;4911298;29;20119;-75
2022/01/22 16:21:27;;;;;;;6.85;4.20;;;;;;;;;;4922508;29;20052;-75
2022/01/22 16:23:53;;;;;;;7.25;4.35;;;;;;;;;;4912718;29;20165;-75
2022/01/22 16:26:19;;;;;;;7.93;3.83;;;;;;;;;;4900214;29;20053;-75
2022/01/22 16:28:45;;;;;;;7.65;3.60;;;;;;;;;;4894487;29;20786;-75
2022/01/22 16:31:11;;;;;;;7.50;3.67;;;;;;;;;;4902480;29;20076;-75
2022/01/22 16:33:36;;;;;;;6.75;3.70;;;;;;;;;;4900033;29;20550;-75
2022/01/22 16:36:03;;;;;;;6.32;3.40;;;;;;;;;;4883762;29;20107;-75
2022/01/22 16:38:29;;;;;;;6.88;3.78;;;;;;;;;;4876918;29;20067;-74
2022/01/22 16:40:55;;;;;;;7.30;3.70;;;;;;;;;;4881775;29;20049;-74
2022/01/22 16:43:29;;;;;;;6.53;3.75;;;;;;;;;;4884236;29;20044;-74
2022/01/22 16:46:11;;;;;;;9.90;4.25;;;;;;;;;;4892337;29;20061;-74
2022/01/22 16:51:31;;;;;;;9.48;4.55;;;;;;;;;;4881584;29;20039;-74
2022/01/22 16:56:55;;;;;;;10.05;4.15;;;;;;;;;;4903188;29;20048;-75
2022/01/22 16:59:23;;;;;;;7.60;4.45;;;;;;;;;;4883174;29;20052;-75
2022/01/22 17:01:53;;;;;;;8.90;4.63;;;;;;;;;;4899782;29;20079;-74
2022/01/22 17:04:24;;;;;;;12.75;4.97;;;;;;;;;;4900719;29;20056;-75
2022/01/22 17:06:52;;;;;;;;;;;;;;;;;;4901553;29;20055;-74
2022/01/22 17:14:40;;;;;;;9.68;5.65;;;;;;;;;;4884094;29;20052;-75
2022/01/22 17:17:06;;;;;;;8.75;5.00;;;;;;;;;;4887203;29;20032;-75
2022/01/22 17:19:33;;;;;;;35.42;16.77;;;;;;;;;;4870162;29;20044;-75
2022/01/22 17:22:01;;;;;;;9.77;5.50;;;;;;;;;;4905881;29;20047;-74
2022/01/22 17:24:28;;;;;;;10.48;5.38;;;;;;;;;;4905440;29;20044;-75
2022/01/22 17:26:54;;;;;;;8.45;4.97;;;;;;;;;;4897723;29;20051;-75